Time;durP1;ratioP1;P1;durP2;ratioP2;P2;SDS_P1;SDS_P2;PMS_P1;PMS_P2;Temp;Humidity;BMP_temperature;BMP_pressure;BME280_temperature;BME280_humidity;BME280_pressure;Samples;Min_cycle;Max_cycle;Signal;HPM_P1;HPM_P2
2024/04/02 00:00:37;;;;;;;1.60;0.90;;;;;;;10.70;86.88;99110.09;105717;1291;22597;-57
2024/04/02 00:03:07;;;;;;;2.30;0.80;;;;;;;10.69;87.29;99110.13;105788;1294;22646;-57
2024/04/02 00:05:37;;;;;;;3.80;1.10;;;;;;;10.68;87.64;99105.02;105910;1294;24322;-59
2024/04/02 00:08:04;;;;;;;1.50;0.90;;;;;;;10.69;87.40;99103.06;105792;1301;22764;-56
2024/04/02 00:10:34;;;;;;;1.70;0.90;;;;;;;10.69;86.65;99113.21;105864;1297;22560;-57
2024/04/02 00:13:00;;;;;;;3.10;0.70;;;;;;;10.66;87.01;99126.29;105438;1304;22522;-57
2024/04/02 00:15:26;;;;;;;2.30;0.90;;;;;;;10.65;86.81;99129.41;105433;1297;22777;-57
2024/04/02 00:17:52;;;;;;;1.00;0.80;;;;;;;10.66;87.41;99127.85;105798;1291;22580;-57
2024/04/02 00:20:20;;;;;;;2.60;0.90;;;;;;;10.67;86.72;99134.33;105734;1286;22862;-59
2024/04/02 00:22:45;;;;;;;1.70;0.90;;;;;;;10.69;87.02;99134.44;105906;1304;23697;-56
2024/04/02 00:25:11;;;;;;;1.70;0.70;;;;;;;10.70;87.34;99135.59;105833;1288;22769;-57
2024/04/02 00:27:37;;;;;;;0.70;0.70;;;;;;;10.71;87.20;99140.58;105879;1294;22529;-57
2024/04/02 00:30:04;;;;;;;0.90;0.50;;;;;;;10.72;86.86;99150.50;105884;1291;22587;-57
2024/04/02 00:32:30;;;;;;;;;;;;;;;10.75;86.74;99156.44;105990;1287;23018;-58
2024/04/02 00:34:56;;;;;;;1.30;0.70;;;;;;;10.75;87.06;99155.91;105773;1295;22692;-57
2024/04/02 00:37:22;;;;;;;1.30;0.70;;;;;;;10.76;87.04;99160.36;105620;1287;22756;-56
2024/04/02 00:39:48;;;;;;;1.30;0.80;;;;;;;10.75;87.38;99169.70;105509;1294;24164;-58
2024/04/02 00:42:14;;;;;;;1.90;0.60;;;;;;;10.74;87.38;99175.60;105770;1291;23657;-57
2024/04/02 00:44:39;;;;;;;1.20;0.60;;;;;;;10.70;86.96;99177.84;105720;1295;22563;-59
2024/04/02 00:47:07;;;;;;;1.10;0.60;;;;;;;10.70;86.79;99177.48;105809;1297;22551;-57
2024/04/02 00:49:33;;;;;;;0.70;0.60;;;;;;;10.72;86.77;99172.75;105754;1295;23913;-57
2024/04/02 00:51:59;;;;;;;1.20;0.70;;;;;;;10.72;87.14;99172.21;105640;1291;22521;-56
2024/04/02 00:54:26;;;;;;;0.80;0.80;;;;;;;10.71;87.23;99176.24;105938;1289;22668;-57
2024/04/02 00:56:52;;;;;;;1.50;0.90;;;;;;;10.69;87.09;99181.65;106096;1298;22502;-59
2024/04/02 00:59:18;;;;;;;2.00;1.00;;;;;;;10.69;87.08;99190.27;105673;1304;23129;-57
2024/04/02 01:01:43;;;;;;;1.50;0.90;;;;;;;10.69;87.19;99197.34;105705;1290;22807;-57
2024/04/02 01:04:13;;;;;;;2.80;0.90;;;;;;;10.68;87.29;99201.20;105900;1294;24242;-58
2024/04/02 01:06:39;;;;;;;2.90;0.80;;;;;;;10.67;87.03;99205.19;105688;1291;22648;-56
2024/04/02 01:09:06;;;;;;;1.00;0.80;;;;;;;10.66;87.14;99202.98;106115;1297;22604;-59
2024/04/02 01:11:35;;;;;;;1.90;0.70;;;;;;;10.63;86.67;99202.56;105819;1289;22617;-56
2024/04/02 01:14:01;;;;;;;1.20;0.80;;;;;;;10.62;87.01;99200.36;106099;1300;24246;-57
2024/04/02 01:16:26;;;;;;;4.70;0.40;;;;;;;10.59;86.55;99202.35;105678;1288;23074;-59
2024/04/02 01:18:51;;;;;;;3.10;0.60;;;;;;;10.56;86.80;99200.06;105714;1300;22569;-57
2024/04/02 01:21:19;;;;;;;1.40;0.60;;;;;;;10.54;87.02;99196.70;105629;1297;22650;-59
2024/04/02 01:23:44;;;;;;;1.20;0.90;;;;;;;10.51;87.76;99193.89;105874;1291;22547;-58
2024/04/02 01:26:11;;;;;;;3.00;0.70;;;;;;;10.50;87.21;99195.48;105888;1290;22534;-57
2024/04/02 01:28:37;;;;;;;1.00;0.80;;;;;;;10.50;87.49;99197.19;106275;1286;24038;-59
2024/04/02 01:31:05;;;;;;;1.00;0.80;;;;;;;10.50;86.92;99197.02;105870;1294;22638;-57
2024/04/02 01:33:32;;;;;;;2.00;0.70;;;;;;;10.51;86.96;99193.04;105706;1292;22692;-57
2024/04/02 01:35:57;;;;;;;1.60;0.80;;;;;;;10.52;86.63;99192.64;105774;1287;22661;-56
2024/04/02 01:38:24;;;;;;;0.90;0.70;;;;;;;10.54;86.56;99190.69;105829;1291;22575;-56
2024/04/02 01:40:49;;;;;;;0.70;0.70;;;;;;;10.53;86.37;99186.56;105781;1291;22543;-59
2024/04/02 01:43:14;;;;;;;0.70;0.60;;;;;;;10.54;86.40;99183.44;105829;1289;23742;-58
2024/04/02 01:45:40;;;;;;;0.70;0.70;;;;;;;10.55;86.29;99181.49;105924;1294;25980;-58
2024/04/02 01:48:06;;;;;;;1.20;0.90;;;;;;;10.57;86.23;99181.27;105794;1287;22529;-57
2024/04/02 01:50:32;;;;;;;0.90;0.70;;;;;;;10.56;86.19;99179.02;105857;1301;23031;-57
2024/04/02 01:52:57;;;;;;;0.90;0.80;;;;;;;10.56;86.22;99176.13;105747;1291;22717;-55
2024/04/02 01:55:23;;;;;;;0.70;0.60;;;;;;;10.53;86.25;99177.08;105785;1295;25321;-56
2024/04/02 01:57:48;;;;;;;1.30;0.70;;;;;;;10.52;86.15;99176.61;105701;1288;23775;-59
2024/04/02 02:00:14;;;;;;;1.50;1.00;;;;;;;10.52;86.32;99174.91;105734;1304;24374;-58
2024/04/02 02:02:41;;;;;;;1.20;0.80;;;;;;;10.51;86.33;99178.73;105907;1291;22845;-56
2024/04/02 02:05:07;;;;;;;2.90;0.80;;;;;;;10.49;86.42;99181.92;106011;1294;22508;-57
2024/04/02 02:07:33;;;;;;;3.60;1.00;;;;;;;10.49;86.12;99183.63;105899;1294;23931;-57
2024/04/02 02:09:58;;;;;;;0.90;0.90;;;;;;;10.49;86.56;99186.40;106019;1294;22544;-57
2024/04/02 02:12:24;;;;;;;1.20;0.70;;;;;;;10.48;86.28;99192.98;105930;1288;22622;-57
2024/04/02 02:14:49;;;;;;;1.40;0.90;;;;;;;10.48;86.11;99195.04;105753;1291;22677;-59
2024/04/02 02:17:15;;;;;;;7.70;1.20;;;;;;;10.49;86.28;99197.06;105849;1298;25330;-58
2024/04/02 02:19:40;;;;;;;1.30;1.20;;;;;;;10.47;86.42;99199.05;104525;1291;22610;-56
2024/04/02 02:22:06;;;;;;;1.30;1.20;;;;;;;10.46;86.71;99204.41;104483;1296;25067;-59
2024/04/02 02:24:32;;;;;;;1.90;1.40;;;;;;;10.45;86.44;99198.95;104355;1287;22607;-58
2024/04/02 02:26:58;;;;;;;1.60;1.50;;;;;;;10.44;86.40;99202.59;104609;1288;22520;-57
2024/04/02 02:29:25;;;;;;;2.40;1.40;;;;;;;10.43;86.35;99209.02;104615;1294;23765;-59
2024/04/02 02:31:52;;;;;;;1.90;1.80;;;;;;;10.43;86.48;99212.64;104375;1294;22694;-58
2024/04/02 02:34:18;;;;;;;2.90;1.50;;;;;;;10.42;86.32;99210.46;104438;1294;22706;-58
2024/04/02 02:36:43;;;;;;;2.00;1.70;;;;;;;10.36;86.16;99215.88;104423;1300;22528;-57
2024/04/02 02:39:11;;;;;;;2.20;2.10;;;;;;;10.33;86.28;99217.01;104090;1297;25444;-59
2024/04/02 02:41:37;;;;;;;3.60;2.20;;;;;;;10.32;86.37;99217.75;104466;1288;22592;-57
2024/04/02 02:44:03;;;;;;;3.10;2.40;;;;;;;10.28;86.29;99213.92;104296;1291;24335;-57
2024/04/02 02:46:28;;;;;;;4.10;2.10;;;;;;;10.22;86.69;99227.21;104482;1291;22572;-59
2024/04/02 02:48:55;;;;;;;2.20;2.10;;;;;;;10.17;87.21;99231.85;104492;1287;25013;-58
2024/04/02 02:51:20;;;;;;;2.70;2.40;;;;;;;10.13;87.37;99236.48;104661;1288;22620;-57
2024/04/02 02:53:46;;;;;;;4.50;2.40;;;;;;;10.09;88.34;99242.48;104647;1287;23941;-57
2024/04/02 02:56:12;;;;;;;2.70;2.50;;;;;;;10.04;88.02;99236.81;104543;1303;24313;-57
2024/04/02 02:58:37;;;;;;;2.30;2.20;;;;;;;10.02;88.09;99237.58;104510;1291;23121;-57
2024/04/02 03:01:06;;;;;;;2.80;2.60;;;;;;;9.96;89.08;99240.36;104541;1297;23191;-58
2024/04/02 03:03:31;;;;;;;3.20;3.00;;;;;;;9.88;89.85;99232.20;104573;1286;23177;-58
2024/04/02 03:05:57;;;;;;;4.50;4.10;;;;;;;9.77;91.90;99233.48;104752;1289;22691;-57
2024/04/02 03:08:23;;;;;;;3.70;3.20;;;;;;;9.70;91.85;99227.88;104464;1301;22619;-59
2024/04/02 03:11:06;;;;;;;3.80;3.50;;;;;;;9.65;91.85;99230.13;104785;1289;23955;-57
2024/04/02 03:13:33;;;;;;;3.40;3.10;;;;;;;9.60;91.38;99223.23;104528;1294;23165;-57
2024/04/02 03:15:59;;;;;;;3.20;3.00;;;;;;;9.56;91.88;99229.23;104733;1287;24802;-57
2024/04/02 03:18:26;;;;;;;5.00;3.10;;;;;;;9.53;92.12;99225.17;104378;1304;22766;-58
2024/04/02 03:20:51;;;;;;;4.60;3.50;;;;;;;9.51;92.06;99229.90;104592;1291;24169;-58
2024/04/02 03:23:17;;;;;;;4.10;3.60;;;;;;;9.48;92.49;99231.72;104571;1295;23803;-59
2024/04/02 03:25:54;;;;;;;3.50;3.20;;;;;;;9.47;90.63;99235.04;104562;1288;22549;-57
2024/04/02 03:28:20;;;;;;;4.90;3.80;;;;;;;9.45;92.36;99233.54;104860;1294;22586;-58
2024/04/02 03:30:46;;;;;;;3.90;3.60;;;;;;;9.42;91.84;99236.58;104770;1295;27588;-57
2024/04/02 03:33:15;;;;;;;3.50;3.30;;;;;;;9.40;92.35;99235.24;104619;1303;25397;-58
2024/04/02 03:35:40;;;;;;;6.10;4.10;;;;;;;9.37;92.73;99231.58;104817;1291;23077;-57
2024/04/02 03:38:06;;;;;;;3.90;3.60;;;;;;;9.35;91.87;99226.52;104506;1288;22556;-58
2024/04/02 03:40:36;;;;;;;3.50;3.30;;;;;;;9.31;91.96;99229.23;104335;1289;22588;-59
2024/04/02 03:43:04;;;;;;;4.20;3.80;;;;;;;9.28;93.34;99231.05;104626;1295;22586;-58
2024/04/02 03:45:30;;;;;;;3.60;3.30;;;;;;;9.27;91.45;99234.50;104914;1290;22610;-58
2024/04/02 03:47:56;;;;;;;3.50;3.20;;;;;;;9.25;91.80;99233.36;104628;1297;22555;-59
2024/04/02 03:50:21;;;;;;;3.80;3.40;;;;;;;9.23;91.86;99231.05;104522;1289;22618;-58
2024/04/02 03:52:46;;;;;;;4.90;3.30;;;;;;;9.20;92.46;99236.10;104634;1298;23001;-58
2024/04/02 03:55:12;;;;;;;5.00;3.60;;;;;;;9.19;92.39;99232.19;104677;1291;25440;-57
2024/04/02 03:57:38;;;;;;;4.10;3.50;;;;;;;9.17;92.71;99230.02;104530;1288;25592;-58
2024/04/02 04:00:04;;;;;;;3.80;3.50;;;;;;;9.16;91.88;99231.59;104592;1288;22583;-59
2024/04/02 04:02:30;;;;;;;3.40;3.10;;;;;;;9.16;91.28;99233.16;104575;1287;22870;-58
2024/04/02 04:04:55;;;;;;;3.50;3.00;;;;;;;9.13;90.69;99237.52;104465;1288;22589;-59
2024/04/02 04:07:21;;;;;;;3.00;2.50;;;;;;;9.12;90.59;99240.49;104765;1294;24293;-58
2024/04/02 04:09:46;;;;;;;3.80;2.90;;;;;;;9.11;90.26;99240.86;104788;1288;22611;-57
2024/04/02 04:12:12;;;;;;;3.10;2.80;;;;;;;9.10;90.01;99239.89;104567;1288;24290;-57
2024/04/02 04:14:38;;;;;;;2.80;2.60;;;;;;;9.09;90.17;99238.52;104642;1287;22649;-58
2024/04/02 04:17:04;;;;;;;4.00;2.60;;;;;;;9.08;90.01;99243.55;104491;1291;22525;-58
2024/04/02 04:19:30;;;;;;;5.30;2.60;;;;;;;9.08;89.76;99244.41;104656;1288;22519;-58
2024/04/02 04:21:55;;;;;;;3.20;2.60;;;;;;;9.09;89.66;99245.59;104739;1304;22910;-58
2024/04/02 04:24:22;;;;;;;4.50;2.70;;;;;;;9.10;88.89;99245.21;104665;1301;22679;-59
2024/04/02 04:26:48;;;;;;;3.90;2.60;;;;;;;9.13;89.02;99250.10;104458;1294;25888;-59
2024/04/02 04:29:13;;;;;;;2.30;2.10;;;;;;;9.15;88.41;99250.21;104559;1296;23919;-58
2024/04/02 04:31:44;;;;;;;3.80;2.30;;;;;;;9.16;88.39;99252.06;104624;1288;22506;-58
2024/04/02 04:34:10;;;;;;;4.70;2.30;;;;;;;9.19;87.75;99252.30;104702;1297;23943;-57
2024/04/02 04:36:35;;;;;;;3.30;2.40;;;;;;;9.21;87.58;99251.39;104692;1291;22597;-58
2024/04/02 04:39:05;;;;;;;2.90;2.00;;;;;;;9.22;87.68;99251.68;105392;1294;26540;-58
2024/04/02 04:41:31;;;;;;;3.00;2.00;;;;;;;9.23;87.17;99250.98;105941;1291;22584;-59
2024/04/02 04:43:56;;;;;;;3.40;1.80;;;;;;;9.24;86.77;99246.64;106041;1298;23864;-58
2024/04/02 04:46:22;;;;;;;2.00;1.80;;;;;;;9.27;85.64;99248.77;105737;1294;22882;-59
2024/04/02 04:48:47;;;;;;;1.70;1.50;;;;;;;9.30;85.78;99249.36;105699;1302;22997;-59
2024/04/02 04:51:13;;;;;;;3.20;1.90;;;;;;;9.32;85.50;99253.27;105990;1300;22767;-57
2024/04/02 04:53:38;;;;;;;2.30;2.10;;;;;;;9.34;85.64;99251.48;105746;1295;23466;-59
2024/04/02 04:56:06;;;;;;;2.70;1.80;;;;;;;9.36;85.37;99246.94;105927;1288;23002;-58
2024/04/02 04:58:33;;;;;;;5.60;1.80;;;;;;;9.37;85.11;99249.13;106253;1287;25443;-57
2024/04/02 05:01:00;;;;;;;1.70;1.60;;;;;;;9.38;85.05;99250.45;106007;1295;27010;-60
2024/04/02 05:03:26;;;;;;;1.90;1.60;;;;;;;9.42;85.49;99255.67;105888;1304;22497;-58
2024/04/02 05:06:05;;;;;;;2.10;1.60;;;;;;;9.43;84.63;99260.27;105758;1291;23244;-59
2024/04/02 05:08:33;;;;;;;1.60;1.50;;;;;;;9.43;84.67;99254.08;105782;1304;200754;-57
2024/04/02 05:11:01;;;;;;;2.50;1.90;;;;;;;9.44;83.63;99257.15;106019;1288;22596;-59
2024/04/02 05:13:28;;;;;;;3.40;1.90;;;;;;;9.46;84.28;99253.80;106029;1300;22490;-56
2024/04/02 05:15:54;;;;;;;3.90;1.60;;;;;;;9.49;85.10;99252.66;106036;1295;22632;-59
2024/04/02 05:18:19;;;;;;;1.70;1.60;;;;;;;9.49;83.27;99255.42;105916;1290;24203;-57
2024/04/02 05:20:45;;;;;;;3.20;1.80;;;;;;;9.51;83.51;99257.95;106004;1301;23865;-56
2024/04/02 05:23:11;;;;;;;2.30;1.80;;;;;;;9.54;83.99;99257.15;105843;1304;24331;-56
2024/04/02 05:25:38;;;;;;;1.50;1.40;;;;;;;9.55;82.94;99254.73;106013;1296;22679;-57
2024/04/02 05:28:05;;;;;;;4.30;2.00;;;;;;;9.56;83.40;99248.66;106030;1291;22626;-58
2024/04/02 05:30:30;;;;;;;3.00;1.40;;;;;;;9.55;82.18;99247.13;106031;1297;23781;-57
2024/04/02 05:32:56;;;;;;;3.50;1.60;;;;;;;9.59;82.17;99247.86;105886;1297;22515;-56
2024/04/02 05:35:21;;;;;;;2.80;1.90;;;;;;;9.61;82.35;99251.05;105878;1297;23968;-58
2024/04/02 05:37:51;;;;;;;2.50;2.00;;;;;;;9.64;81.30;99252.86;106073;1290;22997;-56
2024/04/02 05:40:18;;;;;;;1.50;1.30;;;;;;;9.68;81.82;99251.86;105945;1294;23302;-58
2024/04/02 05:42:45;;;;;;;;;;;;;;;9.75;82.51;99247.67;106026;1300;22612;-57
2024/04/02 05:45:11;;;;;;;2.30;1.30;;;;;;;9.80;82.66;99240.77;105821;1303;23300;-56
2024/04/02 05:47:37;;;;;;;1.80;1.40;;;;;;;9.83;81.13;99240.66;105620;1297;22590;-57
2024/04/02 05:50:04;;;;;;;3.10;1.40;;;;;;;9.85;79.29;99238.88;104454;1297;23838;-57
2024/04/02 05:52:30;;;;;;;3.00;1.70;;;;;;;9.90;79.05;99238.33;104695;1295;23044;-57
2024/04/02 05:54:55;;;;;;;1.90;1.30;;;;;;;9.93;79.64;99240.81;104512;1300;22643;-56
2024/04/02 05:57:21;;;;;;;3.00;1.20;;;;;;;9.95;79.45;99241.93;104447;1289;25453;-57
2024/04/02 05:59:46;;;;;;;1.40;1.30;;;;;;;10.02;80.87;99246.02;104700;1295;26854;-57
2024/04/02 06:02:12;;;;;;;2.40;1.50;;;;;;;10.03;79.94;99249.77;104706;1301;23065;-56
2024/04/02 06:04:37;;;;;;;1.90;1.40;;;;;;;9.96;78.17;99251.55;104570;1292;22503;-57
2024/04/02 06:07:03;;;;;;;2.70;1.10;;;;;;;9.94;77.64;99253.50;104701;1288;22573;-56
2024/04/02 06:09:28;;;;;;;1.30;1.20;;;;;;;9.96;78.45;99253.43;104617;1291;22661;-56
2024/04/02 06:11:54;;;;;;;3.50;1.00;;;;;;;9.99;79.33;99258.34;104613;1295;23869;-57
2024/04/02 06:14:19;;;;;;;6.30;1.60;;;;;;;10.02;78.63;99266.14;104576;1294;22579;-56
2024/04/02 06:16:45;;;;;;;2.60;1.60;;;;;;;9.92;77.12;99262.37;104494;1296;25465;-56
2024/04/02 06:19:10;;;;;;;2.00;1.60;;;;;;;9.93;77.42;99267.48;104648;1295;22710;-56
2024/04/02 06:21:36;;;;;;;2.70;2.10;;;;;;;9.96;77.64;99268.41;104601;1294;22553;-56
2024/04/02 06:24:01;;;;;;;1.80;1.50;;;;;;;10.01;78.13;99267.40;104661;1296;22714;-56
2024/04/02 06:26:27;;;;;;;6.20;1.70;;;;;;;10.07;78.28;99274.93;104542;1295;22839;-56
2024/04/02 06:28:52;;;;;;;3.10;2.00;;;;;;;10.15;77.64;99274.29;104610;1288;24319;-56
2024/04/02 06:31:18;;;;;;;2.10;2.00;;;;;;;10.20;77.23;99277.91;104426;1291;24344;-56
2024/04/02 06:33:43;;;;;;;2.40;1.70;;;;;;;10.28;78.46;99280.05;104340;1297;25259;-56
2024/04/02 06:36:09;;;;;;;2.10;1.70;;;;;;;10.34;77.83;99285.52;104434;1294;22777;-56
2024/04/02 06:38:34;;;;;;;4.30;2.10;;;;;;;10.39;77.90;99287.39;104455;1292;22588;-57
2024/04/02 06:41:00;;;;;;;3.50;1.90;;;;;;;10.47;77.07;99290.02;104540;1299;22618;-56
2024/04/02 06:43:25;;;;;;;2.20;1.50;;;;;;;10.49;76.41;99292.35;104756;1295;22495;-56
2024/04/02 06:46:02;;;;;;;3.80;2.00;;;;;;;10.58;75.54;99282.19;104735;1288;24238;-55
2024/04/02 06:48:28;;;;;;;1.80;1.70;;;;;;;10.72;75.66;99286.98;104748;1291;22621;-57
2024/04/02 06:51:01;;;;;;;2.20;1.70;;;;;;;10.83;76.34;99282.45;104569;1304;26575;-56
2024/04/02 06:53:28;;;;;;;1.60;1.40;;;;;;;10.98;76.51;99289.62;104413;1298;22815;-56
2024/04/02 06:55:57;;;;;;;3.20;2.00;;;;;;;11.11;75.86;99294.09;104567;1295;22565;-58
2024/04/02 06:58:23;;;;;;;13.60;4.00;;;;;;;11.02;74.86;99292.88;104434;1289;23554;-58
2024/04/02 07:00:49;;;;;;;3.20;1.80;;;;;;;11.06;74.20;99295.17;104599;1304;22522;-56
2024/04/02 07:03:20;;;;;;;2.90;1.60;;;;;;;11.07;74.59;99295.28;104725;1301;22514;-56
2024/04/02 07:05:47;;;;;;;2.70;1.60;;;;;;;11.19;75.28;99297.57;104810;1304;22799;-56
2024/04/02 07:08:13;;;;;;;1.60;1.50;;;;;;;11.34;76.13;99300.77;104838;1300;24246;-57
2024/04/02 07:10:44;;;;;;;1.70;1.20;;;;;;;11.50;75.20;99304.95;105210;1297;22778;-57
2024/04/02 07:13:13;;;;;;;2.70;1.60;;;;;;;11.69;76.57;99303.48;105516;1295;22648;-56
2024/04/02 07:15:42;;;;;;;2.00;1.50;;;;;;;11.82;74.85;99308.64;105534;1291;23283;-56
2024/04/02 07:18:08;;;;;;;3.00;1.80;;;;;;;11.65;72.52;99308.27;105847;1291;22619;-56
2024/04/02 07:20:34;;;;;;;5.50;1.30;;;;;;;11.54;71.70;99308.40;105211;1295;22646;-57
2024/04/02 07:23:00;;;;;;;4.10;1.60;;;;;;;11.45;72.01;99310.34;104933;1293;27151;-58
2024/04/02 07:25:27;;;;;;;2.00;1.50;;;;;;;11.32;71.77;99307.94;104750;1289;22569;-57
2024/04/02 07:27:53;;;;;;;5.60;1.90;;;;;;;11.41;73.58;99310.34;104827;1288;22725;-57
2024/04/02 07:30:18;;;;;;;3.80;1.40;;;;;;;11.56;73.21;99316.42;104934;1291;22561;-58
2024/04/02 07:32:43;;;;;;;1.60;1.30;;;;;;;11.67;73.06;99313.90;104799;1303;22906;-57
2024/04/02 07:35:09;;;;;;;2.20;1.20;;;;;;;11.71;71.69;99314.42;105047;1297;24246;-58
2024/04/02 07:37:34;;;;;;;4.80;1.30;;;;;;;11.67;72.75;99315.30;105073;1304;22792;-57
2024/04/02 07:40:00;;;;;;;2.70;1.20;;;;;;;11.77;73.18;99315.39;105141;1291;22576;-58
2024/04/02 07:42:25;;;;;;;1.60;1.00;;;;;;;11.83;72.39;99308.95;105356;1301;23092;-57
2024/04/02 07:44:51;;;;;;;2.50;0.90;;;;;;;11.94;74.18;99309.00;105380;1288;25443;-56
2024/04/02 07:47:17;;;;;;;3.40;1.00;;;;;;;12.05;72.00;99303.33;105224;1302;22538;-58
2024/04/02 07:49:42;;;;;;;1.30;0.80;;;;;;;12.14;73.10;99296.19;105403;1294;26567;-57
2024/04/02 07:52:11;;;;;;;2.50;0.70;;;;;;;12.20;71.22;99287.65;105304;1295;24748;-56
2024/04/02 07:54:36;;;;;;;4.80;0.90;;;;;;;12.15;70.76;99285.94;105361;1300;22615;-56
2024/04/02 07:57:01;;;;;;;1.80;1.30;;;;;;;12.16;69.62;99291.77;105040;1288;25320;-57
2024/04/02 07:59:27;;;;;;;5.80;1.00;;;;;;;12.39;70.99;99292.35;105198;1288;24348;-58
2024/04/02 08:01:52;;;;;;;0.70;0.70;;;;;;;12.57;69.72;99294.94;105339;1287;22857;-58
2024/04/02 08:04:18;;;;;;;2.10;0.80;;;;;;;12.66;69.46;99298.15;105423;1294;23115;-58
2024/04/02 08:06:47;;;;;;;3.40;0.90;;;;;;;13.01;70.29;99302.92;105399;1294;24252;-58
2024/04/02 08:09:13;;;;;;;1.10;0.60;;;;;;;13.34;67.65;99309.17;105079;1291;25527;-56
2024/04/02 08:11:39;;;;;;;2.30;0.50;;;;;;;13.32;64.13;99313.40;104240;1288;22615;-58
2024/04/02 08:14:05;;;;;;;1.30;0.80;;;;;;;13.54;66.20;99318.56;104375;1295;22628;-57
2024/04/02 08:16:32;;;;;;;4.70;0.70;;;;;;;13.87;66.13;99320.55;104421;1291;26578;-56
2024/04/02 08:18:58;;;;;;;1.70;0.70;;;;;;;14.12;65.81;99326.88;104165;1296;22551;-57
2024/04/02 08:21:24;;;;;;;1.60;0.70;;;;;;;14.48;63.19;99326.42;104455;1291;23700;-57
2024/04/02 08:23:50;;;;;;;1.80;1.10;;;;;;;14.64;60.58;99323.66;104208;1304;22569;-58
2024/04/02 08:26:28;;;;;;;1.50;0.90;;;;;;;15.28;61.59;99321.84;104318;1287;25288;-58
2024/04/02 08:28:54;;;;;;;2.60;0.80;;;;;;;15.44;58.03;99318.70;105094;1291;22576;-58
2024/04/02 08:31:19;;;;;;;4.20;0.70;;;;;;;15.64;58.59;99319.96;104932;1291;22600;-58
2024/04/02 08:33:45;;;;;;;0.70;0.60;;;;;;;16.02;60.61;99318.63;105391;1295;23786;-57
2024/04/02 08:36:10;;;;;;;1.70;1.00;;;;;;;16.06;57.68;99321.02;105517;1291;22624;-58
2024/04/02 08:38:36;;;;;;;2.00;0.80;;;;;;;16.34;59.67;99316.35;105625;1304;22870;-58
2024/04/02 08:41:05;;;;;;;1.50;1.00;;;;;;;16.67;58.52;99321.27;105721;1291;22569;-58
2024/04/02 08:43:31;;;;;;;2.10;1.20;;;;;;;16.18;57.23;99325.83;106059;1289;22563;-58
2024/04/02 08:46:00;;;;;;;4.70;1.20;;;;;;;16.02;58.97;99325.91;105925;1298;22568;-58
2024/04/02 08:48:26;;;;;;;1.40;1.10;;;;;;;15.25;57.64;99327.75;105617;1295;22565;-58
2024/04/02 08:50:56;;;;;;;3.30;1.10;;;;;;;15.00;59.70;99330.73;105621;1301;22579;-57
2024/04/02 08:53:22;;;;;;;1.10;1.00;;;;;;;14.75;59.32;99329.30;105815;1301;22526;-58
2024/04/02 08:55:47;;;;;;;1.10;0.90;;;;;;;14.07;59.76;99335.65;105736;1307;22728;-57
2024/04/02 08:58:15;;;;;;;1.40;1.30;;;;;;;13.77;61.26;99338.89;106111;1295;22620;-59
2024/04/02 09:00:41;;;;;;;1.70;1.30;;;;;;;13.49;62.43;99344.93;105904;1288;22702;-57
2024/04/02 09:03:08;;;;;;;1.90;1.60;;;;;;;13.21;62.79;99348.88;105558;1301;24323;-58
2024/04/02 09:05:33;;;;;;;2.40;1.10;;;;;;;12.95;63.58;99362.02;104766;1286;23355;-57
2024/04/02 09:07:59;;;;;;;1.40;1.10;;;;;;;12.82;63.26;99364.70;105003;1294;22872;-57
2024/04/02 09:10:27;;;;;;;1.90;1.30;;;;;;;12.66;63.79;99375.62;104981;1302;22564;-57
2024/04/02 09:12:53;;;;;;;2.10;1.10;;;;;;;12.67;63.86;99380.24;104866;1300;22563;-57
2024/04/02 09:15:18;;;;;;;4.40;1.50;;;;;;;12.89;64.07;99374.96;104737;1302;22648;-58
2024/04/02 09:17:43;;;;;;;4.00;1.70;;;;;;;12.92;62.90;99380.70;104861;1295;22616;-58
2024/04/02 09:20:09;;;;;;;2.30;1.30;;;;;;;12.95;63.16;99385.41;104867;1295;25561;-58
2024/04/02 09:22:34;;;;;;;1.80;1.60;;;;;;;12.93;62.41;99381.69;105089;1292;22540;-56
2024/04/02 09:25:00;;;;;;;1.40;1.30;;;;;;;12.77;61.55;99384.67;105216;1288;22609;-56
2024/04/02 09:27:26;;;;;;;1.40;1.30;;;;;;;12.65;62.07;99384.16;105284;1295;22496;-58
2024/04/02 09:29:54;;;;;;;2.00;1.30;;;;;;;12.65;62.64;99385.54;105325;1288;22579;-56
2024/04/02 09:32:24;;;;;;;2.30;1.10;;;;;;;12.69;62.21;99385.03;105062;1301;22663;-58
2024/04/02 09:34:52;;;;;;;1.60;1.50;;;;;;;12.67;62.40;99387.55;105006;1305;22608;-57
2024/04/02 09:37:37;;;;;;;4.40;1.10;;;;;;;12.62;62.31;99392.77;105148;1294;23710;-58
2024/04/02 09:40:03;;;;;;;2.70;1.30;;;;;;;12.55;61.85;99391.33;105297;1296;22589;-59
2024/04/02 09:42:33;;;;;;;1.40;1.20;;;;;;;12.58;62.81;99395.67;104863;1286;25982;-58
2024/04/02 09:44:59;;;;;;;1.00;0.80;;;;;;;12.65;62.40;99401.45;105035;1295;22674;-58
2024/04/02 09:47:26;;;;;;;2.80;1.10;;;;;;;12.64;62.66;99407.35;105085;1294;25323;-58
2024/04/02 09:49:52;;;;;;;;;;;;;;;12.58;62.66;99412.30;105097;1302;22638;-58
2024/04/02 09:52:19;;;;;;;2.60;1.20;;;;;;;12.52;62.93;99417.23;105065;1298;22606;-58
2024/04/02 09:54:46;;;;;;;5.00;1.30;;;;;;;12.52;63.24;99411.36;104921;1296;23430;-58
2024/04/02 09:57:12;;;;;;;1.70;1.00;;;;;;;12.63;62.99;99411.55;105127;1295;22619;-59
2024/04/02 09:59:40;;;;;;;2.90;1.70;;;;;;;12.65;62.53;99412.14;105056;1288;22593;-59
2024/04/02 10:02:13;;;;;;;6.90;1.60;;;;;;;12.52;62.62;99409.27;104713;1290;22598;-58
2024/04/02 10:04:40;;;;;;;4.10;1.20;;;;;;;12.42;62.75;99415.92;104708;1299;22527;-59
2024/04/02 10:07:06;;;;;;;2.20;1.10;;;;;;;12.50;63.30;99410.06;104669;1286;22498;-59
2024/04/02 10:09:42;;;;;;;2.50;1.30;;;;;;;12.59;63.24;99414.16;104743;1294;22561;-57
2024/04/02 10:12:08;;;;;;;1.60;1.30;;;;;;;12.64;62.78;99418.61;106268;1295;22511;-57
2024/04/02 10:14:36;;;;;;;1.90;1.40;;;;;;;12.48;62.23;99419.45;104798;1289;23008;-58
2024/04/02 10:17:02;;;;;;;2.90;1.10;;;;;;;12.33;62.84;99423.60;104767;1304;22594;-59
2024/04/02 10:19:32;;;;;;;5.40;1.80;;;;;;;12.30;62.64;99426.98;104253;1304;25455;-58
2024/04/02 10:21:58;;;;;;;3.10;1.70;;;;;;;12.25;62.97;99434.46;104625;1292;22593;-58
2024/04/02 10:24:26;;;;;;;3.50;1.60;;;;;;;12.34;63.51;99435.97;104591;1295;22638;-58
2024/04/02 10:26:56;;;;;;;2.60;1.40;;;;;;;12.62;63.55;99434.77;104564;1297;22670;-58
2024/04/02 10:29:34;;;;;;;1.80;1.40;;;;;;;13.39;63.29;99435.08;105075;1304;22618;-58
2024/04/02 10:32:00;;;;;;;3.50;1.10;;;;;;;13.90;60.87;99432.67;105045;1304;22768;-58
2024/04/02 10:34:26;;;;;;;2.50;1.30;;;;;;;14.25;61.28;99432.98;105353;1297;22634;-58
2024/04/02 10:36:53;;;;;;;4.20;1.70;;;;;;;14.73;60.27;99433.84;105406;1288;23581;-59
2024/04/02 10:39:19;;;;;;;2.70;1.70;;;;;;;14.80;58.89;99434.69;105527;1291;25401;-59
2024/04/02 10:41:46;;;;;;;2.50;1.30;;;;;;;14.48;57.74;99437.72;105628;1296;24546;-57
2024/04/02 10:44:12;;;;;;;;;;;;;;;14.53;59.90;99435.74;106282;1291;22569;-58
2024/04/02 10:46:39;;;;;;;3.60;1.40;;;;;;;14.47;58.06;99438.48;105317;1295;22594;-57
2024/04/02 10:49:05;;;;;;;2.70;1.60;;;;;;;14.13;59.42;99440.36;105470;1288;22554;-58
2024/04/02 10:51:32;;;;;;;2.60;0.90;;;;;;;14.14;59.85;99441.52;105549;1306;24313;-58
2024/04/02 10:53:59;;;;;;;2.40;1.20;;;;;;;14.03;57.57;99447.98;105535;1295;22516;-58
2024/04/02 10:56:30;;;;;;;3.60;1.30;;;;;;;13.92;57.58;99445.91;105740;1301;23843;-58
2024/04/02 10:58:58;;;;;;;2.00;0.80;;;;;;;13.82;57.07;99447.44;105299;1297;25964;-58
2024/04/02 11:01:25;;;;;;;1.70;0.90;;;;;;;13.61;57.08;99448.41;105504;1296;22569;-58
2024/04/02 11:03:52;;;;;;;1.40;0.60;;;;;;;13.39;57.21;99456.08;105434;1289;24290;-59
2024/04/02 11:06:19;;;;;;;3.70;1.00;;;;;;;13.23;58.06;99450.57;105531;1294;23558;-58
2024/04/02 11:08:48;;;;;;;;;;;;;;;13.15;58.79;99460.79;106313;1298;22769;-58
2024/04/02 11:11:22;;;;;;;1.30;0.60;;;;;;;13.01;59.23;99465.03;105654;1294;22711;-58
2024/04/02 11:13:49;;;;;;;1.20;0.50;;;;;;;13.00;59.41;99462.82;105349;1287;22707;-58
2024/04/02 11:16:16;;;;;;;2.10;0.50;;;;;;;13.16;59.05;99461.56;105040;1296;22558;-58
2024/04/02 11:18:41;;;;;;;;;;;;;;;13.57;59.01;99460.75;105388;1295;22549;-58
2024/04/02 11:21:14;;;;;;;5.20;0.80;;;;;;;14.17;59.19;99463.02;105116;1288;24871;-57
2024/04/02 11:26:23;;;;;;;1.60;0.60;;;;;;;14.52;55.88;99461.31;105356;1288;22593;-58
2024/04/02 11:28:49;;;;;;;1.90;0.80;;;;;;;14.27;55.78;99466.20;105401;1294;22590;-58